createdAt,value
2019-04-29T00:00:46.046Z,0.00
2019-04-29T00:01:46.045Z,0.00
2019-04-29T00:02:46.033Z,0.00
2019-04-29T00:03:46.028Z,0.00
2019-04-29T00:04:46.022Z,0.00
2019-04-29T00:05:46.015Z,0.00
2019-04-29T00:06:46.009Z,0.00
2019-04-29T00:07:46.004Z,0.00
2019-04-29T00:08:46.006Z,0.00
2019-04-29T00:09:45.992Z,0.00
2019-04-29T00:10:45.983Z,0.00
2019-04-29T00:11:45.980Z,0.00
2019-04-29T00:12:45.970Z,0.00
2019-04-29T00:13:45.967Z,0.00
2019-04-29T00:14:45.959Z,0.00
2019-04-29T00:15:45.955Z,0.00
2019-04-29T00:16:45.945Z,0.00
2019-04-29T00:17:45.939Z,0.00
2019-04-29T00:18:45.933Z,0.00
2019-04-29T00:19:45.927Z,0.00
2019-04-29T00:20:45.922Z,0.00
2019-04-29T00:21:45.915Z,0.00
2019-04-29T00:22:45.909Z,0.00
2019-04-29T00:23:45.901Z,0.00
2019-04-29T00:24:45.894Z,0.00
2019-04-29T00:25:45.888Z,0.00
2019-04-29T00:26:45.882Z,0.00
2019-04-29T00:27:45.874Z,0.00
2019-04-29T00:28:45.868Z,0.00
2019-04-29T00:29:45.865Z,0.00
2019-04-29T00:30:45.857Z,0.00
2019-04-29T00:31:45.850Z,0.00
2019-04-29T00:32:45.843Z,0.00
2019-04-29T00:33:45.835Z,0.00
2019-04-29T00:34:45.829Z,0.00
2019-04-29T00:35:45.825Z,0.00
2019-04-29T00:36:45.818Z,0.00
2019-04-29T00:37:45.811Z,0.00
2019-04-29T00:38:45.811Z,0.00
2019-04-29T00:39:45.799Z,0.00
2019-04-29T00:40:45.791Z,0.00
2019-04-29T00:41:45.784Z,0.00
2019-04-29T00:42:45.781Z,0.00
2019-04-29T00:43:45.780Z,0.00
2019-04-29T00:44:45.764Z,0.00
2019-04-29T00:45:45.760Z,0.00
2019-04-29T00:46:45.752Z,0.00
2019-04-29T00:47:45.746Z,0.00
2019-04-29T00:48:45.740Z,0.00
2019-04-29T00:49:45.732Z,0.00
2019-04-29T00:50:45.726Z,0.00
2019-04-29T00:51:45.722Z,0.00
2019-04-29T00:52:45.714Z,0.00
2019-04-29T00:53:45.715Z,0.00
2019-04-29T00:54:45.700Z,0.00
2019-04-29T00:55:45.695Z,0.00
2019-04-29T00:56:45.689Z,0.00
2019-04-29T00:57:45.684Z,0.00
2019-04-29T00:58:45.677Z,0.00
2019-04-29T00:59:45.669Z,0.00
2019-04-29T01:00:45.664Z,0.00
2019-04-29T01:01:45.655Z,0.00
2019-04-29T01:02:45.651Z,0.00
2019-04-29T01:03:45.644Z,0.00
2019-04-29T01:04:45.636Z,0.00
2019-04-29T01:05:45.630Z,0.00
2019-04-29T01:06:45.625Z,0.00
2019-04-29T01:07:45.616Z,0.00
2019-04-29T01:08:45.610Z,0.00
2019-04-29T01:09:45.605Z,0.00
2019-04-29T01:10:45.598Z,0.00
2019-04-29T01:11:45.590Z,0.00
2019-04-29T01:12:45.585Z,0.00
2019-04-29T01:13:45.578Z,0.00
2019-04-29T01:14:45.572Z,0.00
2019-04-29T01:15:45.565Z,0.00
2019-04-29T01:16:45.557Z,0.00
2019-04-29T01:17:45.551Z,0.00
2019-04-29T01:18:45.546Z,0.00
2019-04-29T01:19:45.540Z,0.00
2019-04-29T01:20:45.532Z,0.00
2019-04-29T01:21:45.526Z,0.00
2019-04-29T01:22:45.518Z,0.00
2019-04-29T01:23:45.512Z,0.00
2019-04-29T01:24:45.509Z,0.00
2019-04-29T01:25:45.501Z,0.00
2019-04-29T01:26:45.492Z,0.00
2019-04-29T01:27:45.492Z,0.00
2019-04-29T01:28:45.478Z,0.00
2019-04-29T01:29:45.473Z,0.00
2019-04-29T01:30:45.467Z,0.00
2019-04-29T01:31:45.461Z,0.00
2019-04-29T01:32:45.453Z,0.00
2019-04-29T01:33:45.447Z,0.00
2019-04-29T01:34:45.446Z,0.00
2019-04-29T01:35:45.437Z,0.00
2019-04-29T01:36:45.429Z,0.00
2019-04-29T01:37:45.419Z,0.00
2019-04-29T01:38:48.463Z,0.00
2019-04-29T01:39:45.414Z,0.00
2019-04-29T01:40:45.401Z,0.00
2019-04-29T01:41:45.395Z,0.00
2019-04-29T01:42:45.389Z,0.00
2019-04-29T01:43:45.381Z,0.00
2019-04-29T01:44:45.374Z,0.00
2019-04-29T01:45:45.368Z,0.00
2019-04-29T01:46:45.361Z,0.00
2019-04-29T01:47:45.355Z,0.00
2019-04-29T01:48:45.347Z,0.00
2019-04-29T01:49:45.339Z,0.00
2019-04-29T01:50:45.334Z,0.00
2019-04-29T01:51:45.329Z,0.00
2019-04-29T01:52:45.320Z,0.00
2019-04-29T01:53:45.314Z,0.00
2019-04-29T01:54:45.309Z,0.00
2019-04-29T01:55:45.301Z,0.00
2019-04-29T01:56:45.293Z,0.00
2019-04-29T01:57:45.291Z,0.00
2019-04-29T01:58:45.279Z,0.00
2019-04-29T01:59:45.275Z,0.00
2019-04-29T02:00:45.276Z,0.00
2019-04-29T02:01:45.260Z,0.00
2019-04-29T02:02:45.254Z,0.00
2019-04-29T02:03:45.250Z,0.00
2019-04-29T02:04:45.238Z,0.00
2019-04-29T02:05:45.234Z,0.00
2019-04-29T02:06:45.226Z,0.00
2019-04-29T02:07:45.220Z,0.00
2019-04-29T02:08:45.215Z,0.00
2019-04-29T02:09:45.206Z,0.00
2019-04-29T02:10:45.198Z,0.00
2019-04-29T02:11:45.193Z,0.00
2019-04-29T02:12:45.186Z,0.00
2019-04-29T02:13:45.180Z,0.00
2019-04-29T02:14:45.173Z,0.00
2019-04-29T02:15:45.166Z,0.00
2019-04-29T02:16:45.160Z,0.00
2019-04-29T02:17:45.156Z,0.00
2019-04-29T02:18:45.146Z,0.00
2019-04-29T02:19:45.139Z,0.00
2019-04-29T02:20:45.131Z,0.00
2019-04-29T02:21:45.124Z,0.00
2019-04-29T02:22:45.125Z,0.00
2019-04-29T02:23:45.113Z,0.00
2019-04-29T02:24:45.131Z,0.00
2019-04-29T02:25:45.097Z,0.00
2019-04-29T02:26:45.091Z,0.00
2019-04-29T02:27:45.085Z,0.00
2019-04-29T02:28:45.078Z,0.00
2019-04-29T02:29:45.071Z,0.00
2019-04-29T02:30:45.067Z,0.00
2019-04-29T02:31:45.060Z,0.00
2019-04-29T02:32:45.052Z,0.00
2019-04-29T02:33:45.045Z,0.00
2019-04-29T02:34:45.039Z,0.00
2019-04-29T02:35:45.040Z,0.00
2019-04-29T02:36:45.025Z,0.00
2019-04-29T02:37:45.017Z,0.00
2019-04-29T02:38:45.012Z,0.00
2019-04-29T02:39:45.004Z,0.00
2019-04-29T02:40:44.995Z,0.00
2019-04-29T02:41:44.993Z,0.00
2019-04-29T02:42:44.983Z,0.00
2019-04-29T02:43:44.981Z,0.00
2019-04-29T02:44:44.969Z,0.00
2019-04-29T02:45:44.963Z,0.00
2019-04-29T02:46:44.957Z,0.00
2019-04-29T02:47:44.949Z,0.00
2019-04-29T02:48:44.942Z,0.00
2019-04-29T02:49:44.934Z,0.00
2019-04-29T02:50:44.930Z,0.00
2019-04-29T02:51:44.928Z,0.00
2019-04-29T02:52:44.913Z,0.00
2019-04-29T02:53:44.914Z,0.00
2019-04-29T02:54:44.902Z,0.00
2019-04-29T02:55:44.896Z,0.00
2019-04-29T02:56:44.889Z,0.00
2019-04-29T02:57:44.987Z,0.00
2019-04-29T02:58:44.875Z,0.00
2019-04-29T02:59:44.870Z,0.00
2019-04-29T03:00:44.865Z,0.00
2019-04-29T03:01:44.853Z,0.00
2019-04-29T03:02:44.850Z,0.00
2019-04-29T03:03:44.841Z,0.00
2019-04-29T03:04:44.837Z,0.00
2019-04-29T03:05:44.827Z,0.00
2019-04-29T03:06:44.819Z,0.00
2019-04-29T03:07:44.813Z,0.00
2019-04-29T03:08:44.804Z,0.00
2019-04-29T03:09:44.799Z,0.00
2019-04-29T03:10:44.793Z,0.00
2019-04-29T03:11:44.785Z,0.00
2019-04-29T03:12:44.778Z,0.00
2019-04-29T03:13:44.770Z,0.00
2019-04-29T03:14:44.765Z,0.00
2019-04-29T03:15:44.760Z,0.00
2019-04-29T03:16:44.757Z,0.00
2019-04-29T03:17:44.745Z,0.00
2019-04-29T03:18:44.741Z,0.00
2019-04-29T03:19:44.732Z,0.00
2019-04-29T03:20:44.741Z,0.00
2019-04-29T03:21:44.716Z,0.00
2019-04-29T03:22:44.711Z,0.00
2019-04-29T03:23:44.703Z,0.00
2019-04-29T03:24:44.697Z,0.00
2019-04-29T03:25:44.688Z,0.00
2019-04-29T03:26:44.683Z,0.00
2019-04-29T03:27:44.676Z,0.00
2019-04-29T03:28:44.668Z,0.00
2019-04-29T03:29:44.662Z,0.00
2019-04-29T03:30:44.658Z,0.00
2019-04-29T03:31:44.651Z,0.00
2019-04-29T03:32:44.642Z,0.00
2019-04-29T03:33:44.634Z,0.00
2019-04-29T03:34:44.633Z,0.00
2019-04-29T03:35:44.622Z,0.00
2019-04-29T03:36:44.616Z,0.00
2019-04-29T03:37:44.611Z,0.00
2019-04-29T03:38:44.599Z,0.00
2019-04-29T03:39:44.593Z,0.00
2019-04-29T03:40:44.587Z,0.00
2019-04-29T03:41:44.578Z,0.00
2019-04-29T03:42:44.574Z,0.00
2019-04-29T03:43:44.567Z,0.00
2019-04-29T03:44:44.559Z,0.00
2019-04-29T03:45:44.553Z,0.00
2019-04-29T03:46:44.545Z,0.00
2019-04-29T03:47:44.538Z,0.00
2019-04-29T03:48:44.532Z,0.00
2019-04-29T03:49:44.524Z,0.00
2019-04-29T03:50:44.521Z,0.00
2019-04-29T03:51:44.516Z,0.00
2019-04-29T03:52:44.507Z,0.00
2019-04-29T03:53:44.497Z,0.00
2019-04-29T03:54:44.491Z,0.00
2019-04-29T03:55:44.499Z,0.00
2019-04-29T03:56:44.477Z,0.00
2019-04-29T03:57:44.470Z,0.00
2019-04-29T03:58:44.465Z,0.00
2019-04-29T03:59:44.465Z,0.00
2019-04-29T04:00:44.590Z,0.00
2019-04-29T04:01:44.444Z,0.00
2019-04-29T04:02:44.439Z,0.00
2019-04-29T04:03:44.445Z,0.00
2019-04-29T04:04:44.423Z,0.00
2019-04-29T04:05:44.416Z,0.00
2019-04-29T04:06:44.410Z,0.00
2019-04-29T04:07:44.405Z,0.00
2019-04-29T04:08:44.396Z,0.00
2019-04-29T04:09:44.390Z,0.00
2019-04-29T04:10:44.383Z,0.00
2019-04-29T04:11:44.379Z,0.00
2019-04-29T04:12:44.369Z,0.00
2019-04-29T04:13:44.362Z,0.00
2019-04-29T04:14:44.356Z,0.00
2019-04-29T04:15:44.348Z,0.00
2019-04-29T04:16:44.341Z,0.00
2019-04-29T04:17:44.335Z,0.00
2019-04-29T04:18:44.328Z,0.00
2019-04-29T04:19:44.322Z,0.00
2019-04-29T04:20:44.313Z,0.00
2019-04-29T04:21:44.306Z,0.00
2019-04-29T04:22:44.301Z,0.00
2019-04-29T04:23:44.293Z,0.00
2019-04-29T04:24:44.287Z,0.00
2019-04-29T04:25:44.280Z,0.00
2019-04-29T04:26:44.274Z,0.00
2019-04-29T04:27:44.274Z,0.00
2019-04-29T04:28:44.261Z,0.00
2019-04-29T04:29:44.251Z,0.00
2019-04-29T04:30:44.247Z,0.00
2019-04-29T04:31:44.239Z,0.00
2019-04-29T04:32:44.233Z,0.00
2019-04-29T04:33:44.225Z,0.00
2019-04-29T04:34:44.344Z,0.00
2019-04-29T04:35:44.209Z,0.00
2019-04-29T04:36:44.204Z,0.00
2019-04-29T04:37:44.198Z,0.00
2019-04-29T04:38:44.191Z,0.00
2019-04-29T04:39:44.187Z,0.00
2019-04-29T04:40:44.177Z,0.00
2019-04-29T04:41:44.171Z,0.00
2019-04-29T04:42:44.164Z,0.00
2019-04-29T04:43:44.162Z,0.00
2019-04-29T04:44:44.181Z,0.00
2019-04-29T04:45:44.144Z,0.00
2019-04-29T04:46:44.147Z,0.00
2019-04-29T04:47:44.138Z,0.00
2019-04-29T04:48:44.122Z,0.00
2019-04-29T04:49:44.131Z,0.00
2019-04-29T04:50:44.109Z,0.00
2019-04-29T04:51:44.102Z,0.00
2019-04-29T04:52:44.094Z,0.00
2019-04-29T04:53:44.093Z,0.00
2019-04-29T04:54:44.081Z,0.00
2019-04-29T04:55:44.074Z,0.00
2019-04-29T04:56:44.067Z,0.00
2019-04-29T04:57:44.059Z,0.00
2019-04-29T04:58:44.053Z,0.00
2019-04-29T04:59:44.052Z,0.00
2019-04-29T05:00:44.039Z,0.00
2019-04-29T05:01:44.035Z,0.00
2019-04-29T05:02:44.028Z,0.00
2019-04-29T05:03:44.023Z,0.00
2019-04-29T05:04:44.013Z,0.00
2019-04-29T05:05:44.007Z,0.00
2019-04-29T05:06:44.001Z,0.00
2019-04-29T05:07:43.999Z,0.00
2019-04-29T05:08:43.986Z,0.00
2019-04-29T05:09:43.981Z,0.00
2019-04-29T05:10:43.975Z,0.00
2019-04-29T05:11:43.967Z,0.00
2019-04-29T05:12:43.961Z,0.00
2019-04-29T05:13:43.954Z,0.00
2019-04-29T05:14:43.947Z,0.00
2019-04-29T05:15:43.940Z,0.00
2019-04-29T05:16:43.933Z,0.00
2019-04-29T05:17:43.928Z,0.00
2019-04-29T05:18:43.921Z,0.00
2019-04-29T05:19:43.952Z,0.00
2019-04-29T05:20:43.907Z,0.00
2019-04-29T05:21:43.901Z,0.00
2019-04-29T05:22:43.899Z,0.00
2019-04-29T05:23:43.889Z,0.00
2019-04-29T05:24:43.880Z,0.00
2019-04-29T05:25:43.881Z,0.00
2019-04-29T05:26:43.867Z,0.00
2019-04-29T05:27:43.864Z,0.00
2019-04-29T05:28:43.855Z,0.00
2019-04-29T05:29:43.849Z,0.00
2019-04-29T05:30:43.846Z,0.00
2019-04-29T05:31:43.840Z,0.00
2019-04-29T05:32:43.834Z,0.00
2019-04-29T05:33:43.823Z,0.00
2019-04-29T05:34:46.461Z,0.00
2019-04-29T05:35:43.811Z,0.00
2019-04-29T05:36:43.807Z,0.00
2019-04-29T05:37:43.797Z,0.00
2019-04-29T05:38:43.792Z,0.00
2019-04-29T05:39:43.790Z,0.00
2019-04-29T05:40:43.780Z,0.00
2019-04-29T05:41:43.772Z,0.00
2019-04-29T05:42:43.768Z,0.00
2019-04-29T05:43:43.762Z,0.00
2019-04-29T05:44:43.754Z,0.00
2019-04-29T05:45:46.235Z,0.00
2019-04-29T05:46:43.772Z,0.00
2019-04-29T05:47:43.736Z,0.00
2019-04-29T05:48:43.729Z,0.00
2019-04-29T05:49:43.726Z,0.00
2019-04-29T05:50:47.483Z,0.00
2019-04-29T05:51:43.711Z,0.00
2019-04-29T05:52:43.705Z,0.00
2019-04-29T05:53:47.297Z,0.00
2019-04-29T05:54:43.691Z,0.00
2019-04-29T05:55:43.689Z,0.00
2019-04-29T05:56:43.680Z,0.00
2019-04-29T05:57:43.675Z,0.00
2019-04-29T05:58:43.668Z,0.00
2019-04-29T05:59:47.693Z,0.00
2019-04-29T06:00:43.656Z,0.00
2019-04-29T06:01:47.143Z,0.00
2019-04-29T06:02:43.646Z,0.00
2019-04-29T06:03:44.526Z,0.00
2019-04-29T06:04:43.633Z,0.00
2019-04-29T06:05:43.630Z,0.00
2019-04-29T06:06:43.623Z,0.00
2019-04-29T06:07:43.616Z,0.00
2019-04-29T06:08:43.610Z,0.00
2019-04-29T06:09:43.605Z,0.00
2019-04-29T06:10:43.613Z,0.00
2019-04-29T06:11:43.596Z,0.00
2019-04-29T06:12:44.558Z,0.00
2019-04-29T06:13:43.582Z,0.00
2019-04-29T06:14:43.578Z,0.00
2019-04-29T06:15:44.989Z,0.00
2019-04-29T06:16:43.566Z,0.00
2019-04-29T06:17:44.895Z,0.00
2019-04-29T06:19:43.549Z,0.00
2019-04-29T06:21:07.850Z,0.00
2019-04-29T06:21:43.538Z,0.00
2019-04-29T06:22:43.624Z,0.28
2019-04-29T06:23:43.527Z,4.18
2019-04-29T06:24:43.524Z,9.80
2019-04-29T06:25:43.516Z,11.89
2019-04-29T06:26:43.679Z,14.55
2019-04-29T06:27:43.509Z,15.70
2019-04-29T06:28:43.501Z,16.37
2019-04-29T06:29:43.496Z,16.46
2019-04-29T06:31:31.821Z,19.32
2019-04-29T06:32:31.816Z,15.42
2019-04-29T06:33:31.810Z,15.42
2019-04-29T06:34:35.398Z,13.89
2019-04-29T06:35:31.800Z,13.51
2019-04-29T06:36:31.794Z,12.65
2019-04-29T06:37:31.792Z,12.85
2019-04-29T06:38:31.787Z,11.23
2019-04-29T06:39:31.780Z,10.08
2019-04-29T06:40:35.294Z,7.23
2019-04-29T06:41:31.770Z,8.28
2019-04-29T06:42:33.420Z,11.52
2019-04-29T06:43:31.761Z,11.61
2019-04-29T06:44:31.756Z,15.71
2019-04-29T06:45:31.754Z,15.90
2019-04-29T06:46:31.747Z,14.76
2019-04-29T06:47:31.741Z,14.37
2019-04-29T06:48:31.741Z,13.42
2019-04-29T06:49:31.731Z,13.62
2019-04-29T06:50:31.726Z,13.71
2019-04-29T06:51:31.720Z,13.62
2019-04-29T06:52:31.718Z,15.23
2019-04-29T06:53:31.711Z,15.05
2019-04-29T06:54:31.707Z,14.95
2019-04-29T06:55:31.703Z,17.99
2019-04-29T06:56:31.699Z,18.18
2019-04-29T06:57:31.692Z,19.15
2019-04-29T06:58:32.456Z,21.71
2019-04-29T06:59:31.694Z,22.94
2019-04-29T07:00:31.679Z,21.91
2019-04-29T07:01:33.117Z,21.99
2019-04-29T07:02:31.670Z,22.28
2019-04-29T07:03:31.667Z,22.94
2019-04-29T07:04:38.461Z,22.00
2019-04-29T07:05:31.658Z,18.66
2019-04-29T07:06:31.652Z,19.81
2019-04-29T07:07:31.648Z,19.81
2019-04-29T07:08:31.641Z,21.15
2019-04-29T07:09:31.638Z,20.00
2019-04-29T07:10:31.635Z,21.34
2019-04-29T07:11:31.764Z,22.67
2019-04-29T07:12:31.625Z,24.58
2019-04-29T07:13:31.620Z,23.15
2019-04-29T07:14:33.316Z,26.96
2019-04-29T07:15:31.617Z,30.31
2019-04-29T07:16:32.088Z,29.36
2019-04-29T07:17:31.601Z,29.36
2019-04-29T07:18:31.598Z,31.26
2019-04-29T07:19:31.592Z,31.26
2019-04-29T07:20:32.483Z,33.74
2019-04-29T07:21:31.584Z,34.98
2019-04-29T07:22:31.581Z,39.56
2019-04-29T07:23:31.575Z,42.22
2019-04-29T07:24:31.574Z,43.56
2019-04-29T07:25:31.568Z,44.60
2019-04-29T07:26:31.564Z,44.99
2019-04-29T07:27:34.870Z,44.99
2019-04-29T07:28:31.553Z,42.89
2019-04-29T07:29:32.698Z,44.13
2019-04-29T07:30:31.548Z,38.70
2019-04-29T07:31:33.236Z,42.15
2019-04-29T07:32:32.487Z,41.20
2019-04-29T07:33:31.536Z,42.63
2019-04-29T07:34:33.795Z,40.53
2019-04-29T07:35:31.527Z,44.73
2019-04-29T07:36:31.521Z,49.59
2019-04-29T07:37:34.063Z,50.07
2019-04-29T07:38:41.134Z,52.07
2019-04-29T07:39:33.159Z,50.73
2019-04-29T07:40:31.508Z,47.61
2019-04-29T07:41:31.502Z,54.86
2019-04-29T07:42:33.213Z,56.38
2019-04-29T07:43:31.494Z,53.43
2019-04-29T07:44:43.314Z,52.48
2019-04-29T07:45:43.670Z,52.09
2019-04-29T07:46:36.428Z,49.52
2019-04-29T07:47:31.483Z,49.23
2019-04-29T07:48:31.479Z,50.28
2019-04-29T07:49:31.473Z,49.13
2019-04-29T07:50:31.470Z,47.63
2019-04-29T07:51:34.752Z,50.88
2019-04-29T07:52:31.462Z,52.79
2019-04-29T07:53:40.130Z,55.08
2019-04-29T07:54:31.459Z,54.99
2019-04-29T07:55:32.577Z,59.66
2019-04-29T07:56:31.451Z,58.64
2019-04-29T07:57:31.448Z,61.10
2019-04-29T07:58:31.446Z,55.27
2019-04-29T07:59:33.759Z,56.92
2019-04-29T08:00:31.439Z,58.64
2019-04-29T08:01:31.439Z,59.22
2019-04-29T08:02:31.434Z,65.74
2019-04-29T08:03:31.433Z,60.58
2019-04-29T08:04:31.434Z,64.88
2019-04-29T08:05:31.429Z,74.28
2019-04-29T08:06:31.425Z,74.85
2019-04-29T08:07:31.425Z,77.92
2019-04-29T08:08:31.427Z,79.16
2019-04-29T08:09:31.422Z,83.83
2019-04-29T08:10:31.422Z,86.41
2019-04-29T08:11:31.423Z,88.90
2019-04-29T08:13:31.423Z,86.45
2019-04-29T08:14:31.424Z,86.97
2019-04-29T08:15:32.052Z,85.15
2019-04-29T08:16:31.425Z,84.28
2019-04-29T08:17:31.427Z,83.67
2019-04-29T08:18:31.429Z,85.53
2019-04-29T08:19:31.636Z,84.15
2019-04-29T08:20:31.436Z,85.19
2019-04-29T08:21:31.439Z,82.79
2019-04-29T08:22:31.444Z,82.79
2019-04-29T08:23:32.583Z,80.74
2019-04-29T08:24:31.451Z,81.54
2019-04-29T08:25:31.456Z,82.26
2019-04-29T08:26:33.571Z,80.40
2019-04-29T08:27:39.801Z,79.91
2019-04-29T08:28:31.470Z,80.01
2019-04-29T08:29:35.708Z,79.86
2019-04-29T08:30:31.482Z,78.61
2019-04-29T08:31:31.487Z,78.61
2019-04-29T08:32:31.598Z,77.17
2019-04-29T08:33:31.500Z,76.37
2019-04-29T08:34:31.507Z,77.09
2019-04-29T08:35:32.680Z,79.93
2019-04-29T08:36:31.519Z,80.64
2019-04-29T08:37:31.527Z,79.97
2019-04-29T08:38:31.536Z,79.49
2019-04-29T08:39:31.541Z,79.88
2019-04-29T08:40:34.155Z,79.78
2019-04-29T08:41:31.557Z,80.68
2019-04-29T08:42:31.563Z,79.67
2019-04-29T08:43:31.570Z,79.36
2019-04-29T08:44:31.577Z,75.67
2019-04-29T08:45:34.677Z,75.48
2019-04-29T08:46:31.592Z,72.73
2019-04-29T08:47:31.815Z,71.83
2019-04-29T08:48:31.609Z,71.89
2019-04-29T08:49:31.617Z,71.96
2019-04-29T08:50:31.625Z,70.43
2019-04-29T08:51:31.632Z,72.06
2019-04-29T08:52:31.641Z,71.64
2019-04-29T08:53:31.651Z,71.83
2019-04-29T08:54:31.659Z,72.06
2019-04-29T08:55:36.017Z,70.62
2019-04-29T08:56:31.674Z,69.97
2019-04-29T08:57:35.934Z,71.89
2019-04-29T08:58:31.691Z,72.66
2019-04-29T08:59:31.700Z,73.52
2019-04-29T09:00:31.710Z,73.81
2019-04-29T09:01:33.944Z,73.62
2019-04-29T09:02:35.056Z,74.77
2019-04-29T09:03:40.222Z,74.81
2019-04-29T09:04:33.259Z,73.60
2019-04-29T09:05:31.754Z,72.85
2019-04-29T09:06:32.643Z,74.60
2019-04-29T09:07:31.774Z,77.33
2019-04-29T09:08:32.927Z,77.23
2019-04-29T09:09:31.797Z,78.09
2019-04-29T09:10:32.953Z,79.91
2019-04-29T09:11:31.806Z,79.05
2019-04-29T09:12:31.816Z,76.75
2019-04-29T09:13:31.825Z,76.21
2019-04-29T09:14:31.835Z,75.31
2019-04-29T09:15:31.842Z,75.46
2019-04-29T09:16:31.850Z,77.51
2019-04-29T09:17:31.861Z,77.13
2019-04-29T09:18:31.868Z,76.62
2019-04-29T09:19:31.876Z,77.73
2019-04-29T09:20:31.887Z,77.58
2019-04-29T09:21:31.895Z,77.42
2019-04-29T09:22:31.905Z,76.75
2019-04-29T09:23:31.910Z,76.34
2019-04-29T09:24:31.919Z,74.85
2019-04-29T09:25:31.927Z,73.46
2019-04-29T09:26:31.935Z,75.73
2019-04-29T09:27:31.945Z,75.25
2019-04-29T09:28:31.953Z,76.12
2019-04-29T09:29:31.962Z,76.06
2019-04-29T09:30:31.971Z,76.92
2019-04-29T09:31:31.977Z,76.15
2019-04-29T09:32:33.989Z,76.52
2019-04-29T09:33:31.994Z,75.75
2019-04-29T09:34:32.005Z,73.57
2019-04-29T09:35:33.760Z,72.49
2019-04-29T09:36:32.022Z,70.01
2019-04-29T09:37:32.031Z,67.64
2019-04-29T09:38:32.573Z,71.39
2019-04-29T09:39:42.379Z,70.39
2019-04-29T09:40:32.055Z,71.70
2019-04-29T09:41:35.102Z,75.25
2019-04-29T09:42:32.074Z,77.15
2019-04-29T09:43:32.950Z,73.83
2019-04-29T09:44:35.173Z,71.06
2019-04-29T09:45:32.103Z,72.06
2019-04-29T09:46:34.487Z,72.08
2019-04-29T09:47:32.119Z,74.10
2019-04-29T09:48:32.126Z,72.43
2019-04-29T09:49:32.133Z,73.97
2019-04-29T09:50:34.162Z,74.98
2019-04-29T09:51:32.150Z,77.09
2019-04-29T09:52:32.164Z,76.86
2019-04-29T09:53:32.167Z,77.44
2019-04-29T09:54:32.177Z,78.00
2019-04-29T09:55:35.691Z,77.11
2019-04-29T09:56:34.548Z,80.32
2019-04-29T09:57:32.198Z,79.59
2019-04-29T09:58:32.203Z,80.22
2019-04-29T09:59:32.211Z,78.64
2019-04-29T10:00:32.216Z,81.10
2019-04-29T10:01:32.225Z,82.73
2019-04-29T10:02:33.160Z,81.71
2019-04-29T10:03:32.236Z,80.56
2019-04-29T10:04:32.243Z,81.23
2019-04-29T10:05:32.249Z,81.48
2019-04-29T10:06:32.256Z,82.24
2019-04-29T10:07:32.262Z,82.67
2019-04-29T10:08:32.266Z,81.95
2019-04-29T10:09:32.275Z,81.56
2019-04-29T10:10:32.278Z,80.93
2019-04-29T10:11:32.284Z,80.55
2019-04-29T10:12:32.287Z,80.78
2019-04-29T10:13:32.293Z,80.01
2019-04-29T10:14:32.298Z,80.20
2019-04-29T10:15:32.302Z,79.72
2019-04-29T10:16:35.868Z,79.63
2019-04-29T10:17:32.310Z,79.44
2019-04-29T10:18:32.315Z,77.63
2019-04-29T10:19:32.320Z,78.84
2019-04-29T10:20:32.323Z,80.76
2019-04-29T10:21:32.334Z,80.47
2019-04-29T10:22:32.337Z,80.18
2019-04-29T10:23:32.337Z,80.52
2019-04-29T10:24:32.341Z,81.38
2019-04-29T10:25:32.347Z,81.48
2019-04-29T10:26:32.349Z,83.05
2019-04-29T10:27:32.352Z,82.57
2019-04-29T10:28:32.355Z,81.52
2019-04-29T10:29:32.361Z,81.46
2019-04-29T10:30:32.535Z,81.37
2019-04-29T10:31:32.367Z,81.08
2019-04-29T10:32:32.371Z,81.41
2019-04-29T10:33:32.373Z,80.32
2019-04-29T10:34:33.074Z,82.32
2019-04-29T10:35:32.380Z,81.56
2019-04-29T10:36:32.385Z,81.56
2019-04-29T10:37:32.727Z,80.94
2019-04-29T10:38:32.394Z,82.29
2019-04-29T10:39:32.396Z,82.19
2019-04-29T10:40:32.398Z,82.71
2019-04-29T10:41:36.115Z,81.37
2019-04-29T10:42:32.405Z,79.49
2019-04-29T10:43:35.556Z,78.34
2019-04-29T10:44:32.410Z,77.78
2019-04-29T10:45:32.416Z,79.60
2019-04-29T10:46:32.420Z,80.18
2019-04-29T10:47:32.422Z,81.20
2019-04-29T10:48:32.424Z,82.24
2019-04-29T10:49:34.841Z,83.05
2019-04-29T10:50:32.434Z,81.13
2019-04-29T10:51:32.433Z,80.99
2019-04-29T10:52:34.559Z,79.26
2019-04-29T10:53:32.438Z,79.64
2019-04-29T10:54:32.443Z,79.55
2019-04-29T10:55:32.444Z,79.16
2019-04-29T10:56:35.309Z,78.49
2019-04-29T10:57:32.451Z,79.07
2019-04-29T10:58:35.636Z,79.88
2019-04-29T10:59:35.939Z,78.63
2019-04-29T11:00:32.463Z,78.44
2019-04-29T11:01:32.463Z,78.59
2019-04-29T11:02:32.465Z,79.55
2019-04-29T11:03:32.467Z,78.97
2019-04-29T11:04:36.099Z,79.07
2019-04-29T11:05:32.473Z,78.59
2019-04-29T11:06:35.897Z,80.03
2019-04-29T11:07:32.478Z,81.41
2019-04-29T11:08:33.740Z,81.75
2019-04-29T11:09:32.485Z,80.79
2019-04-29T11:10:32.489Z,80.76
2019-04-29T11:11:32.491Z,81.04
2019-04-29T11:12:32.498Z,81.66
2019-04-29T11:13:32.498Z,80.41
2019-04-29T11:14:33.180Z,80.41
2019-04-29T11:15:32.792Z,80.60
2019-04-29T11:16:46.132Z,80.26
2019-04-29T11:17:34.853Z,80.64
2019-04-29T11:18:32.510Z,78.82
2019-04-29T11:19:35.101Z,78.02
2019-04-29T11:20:32.516Z,77.15
2019-04-29T11:21:32.520Z,77.92
2019-04-29T11:22:33.873Z,77.82
2019-04-29T11:23:32.523Z,78.97
2019-04-29T11:24:32.566Z,79.59
2019-04-29T11:25:32.529Z,78.40
2019-04-29T11:26:32.532Z,78.59
2019-04-29T11:27:32.534Z,78.63
2019-04-29T11:28:32.536Z,78.97
2019-04-29T11:29:35.556Z,77.59
2019-04-29T11:30:34.891Z,79.03
2019-04-29T11:31:32.608Z,78.36
2019-04-29T11:32:32.546Z,79.16
2019-04-29T11:33:35.603Z,78.59
2019-04-29T11:34:33.402Z,77.76
2019-04-29T11:35:35.566Z,76.90
2019-04-29T11:36:35.045Z,75.29
2019-04-29T11:37:32.558Z,75.68
2019-04-29T11:38:33.466Z,75.58
2019-04-29T11:39:32.560Z,75.87
2019-04-29T11:40:43.092Z,76.29
2019-04-29T11:41:32.568Z,75.95
2019-04-29T11:42:36.437Z,75.46
2019-04-29T11:43:32.572Z,75.62
2019-04-29T11:44:32.576Z,76.23
2019-04-29T11:45:33.921Z,75.04
2019-04-29T11:46:32.577Z,75.62
2019-04-29T11:47:32.579Z,76.10
2019-04-29T11:48:32.581Z,75.23
2019-04-29T11:49:32.584Z,75.81
2019-04-29T11:50:32.587Z,74.52
2019-04-29T11:51:34.079Z,76.06
2019-04-29T11:52:32.611Z,78.45
2019-04-29T11:53:32.591Z,78.11
2019-04-29T11:54:32.594Z,78.20
2019-04-29T11:55:32.597Z,76.10
2019-04-29T11:56:32.598Z,75.81
2019-04-29T11:57:40.744Z,75.81
2019-04-29T11:58:32.602Z,75.58
2019-04-29T11:59:32.618Z,75.96
2019-04-29T12:00:32.605Z,77.69
2019-04-29T12:01:39.250Z,76.82
2019-04-29T12:02:45.474Z,78.27
2019-04-29T12:03:32.611Z,79.36
2019-04-29T12:04:33.392Z,79.55
2019-04-29T12:05:32.613Z,79.36
2019-04-29T12:06:32.616Z,78.64
2019-04-29T12:07:34.045Z,78.17
2019-04-29T12:08:32.618Z,78.70
2019-04-29T12:09:32.620Z,79.89
2019-04-29T12:10:32.620Z,79.95
2019-04-29T12:11:35.766Z,80.85
2019-04-29T12:12:32.623Z,81.33
2019-04-29T12:13:32.625Z,79.80
2019-04-29T12:14:33.757Z,78.64
2019-04-29T12:15:32.628Z,78.11
2019-04-29T12:16:32.629Z,78.11
2019-04-29T12:17:32.632Z,77.59
2019-04-29T12:18:33.974Z,77.97
2019-04-29T12:19:32.633Z,78.27
2019-04-29T12:20:32.635Z,78.17
2019-04-29T12:21:32.638Z,78.11
2019-04-29T12:22:32.638Z,78.49
2019-04-29T12:23:32.638Z,77.92
2019-04-29T12:24:32.642Z,78.49
2019-04-29T12:25:32.640Z,78.78
2019-04-29T12:26:35.003Z,78.27
2019-04-29T12:27:32.643Z,78.64
2019-04-29T12:28:32.644Z,79.89
2019-04-29T12:29:32.648Z,79.32
2019-04-29T12:30:34.803Z,79.60
2019-04-29T12:31:32.646Z,79.13
2019-04-29T12:32:32.647Z,79.51
2019-04-29T12:33:36.735Z,79.80
2019-04-29T12:34:32.652Z,79.32
2019-04-29T12:35:32.652Z,79.70
2019-04-29T12:36:36.665Z,79.89
2019-04-29T12:37:34.400Z,80.41
2019-04-29T12:38:44.579Z,79.97
2019-04-29T12:39:42.883Z,78.97
2019-04-29T12:40:32.665Z,79.64
2019-04-29T12:41:32.731Z,79.55
2019-04-29T12:42:35.801Z,79.64
2019-04-29T12:43:32.661Z,79.89
2019-04-29T12:44:35.283Z,80.08
2019-04-29T12:45:32.663Z,80.76
2019-04-29T12:46:32.663Z,79.22
2019-04-29T12:47:32.661Z,78.78
2019-04-29T12:48:32.662Z,78.30
2019-04-29T12:49:32.665Z,77.50
2019-04-29T12:50:32.665Z,78.45
2019-04-29T12:51:32.666Z,78.20
2019-04-29T12:52:32.700Z,77.50
2019-04-29T12:53:32.699Z,77.50
2019-04-29T12:54:32.667Z,78.02
2019-04-29T12:55:44.130Z,78.02
2019-04-29T12:56:32.669Z,77.34
2019-04-29T12:57:32.669Z,78.17
2019-04-29T12:58:32.670Z,77.73
2019-04-29T12:59:35.498Z,76.67
2019-04-29T13:00:46.320Z,76.10
2019-04-29T13:01:50.274Z,75.62
2019-04-29T13:02:32.673Z,75.52
2019-04-29T13:03:39.653Z,75.52
2019-04-29T13:04:32.673Z,77.00
2019-04-29T13:05:32.674Z,76.17
2019-04-29T13:06:39.145Z,75.65
2019-04-29T13:07:32.674Z,77.71
2019-04-29T13:08:32.675Z,76.46